FK-0026 weather

Public forecast

Using degrees Celsius for public forecast. Weather courtesy of forecast.io.

Closest aviation weather report (METAR) to Speedwell Island Airport

Closest report is Mount Pleasant Airport, 53.8 nm (99.6 km) ENE. Retrieved 2020/08/11 12:24 UTC (13 minutes ago):

EGYP 111224Z 28012KT 9999 FEW010 M00/M02 Q0995 NOSIG

Closest aviation forecast (TAF) to Speedwell Island Airport

Closest forecast is Mount Pleasant Airport, 53.8 nm (99.6 km) ENE. Retrieved 2020/08/11 12:33 UTC (4 minutes ago):

TAF TAF EGYP 111010Z 1112/1206 27010KT 9999 FEW040 BECMG 1120/1124 34015KT PROB40 TEMPO 1120/1206 5000 -SHRASN SCT012 PROB30 TEMPO 1122/1206 3000 SHRASN SCT004